Time;durP1;ratioP1;P1;durP2;ratioP2;P2;SDS_P1;SDS_P2;PMS_P1;PMS_P2;Temp;Humidity;BMP_temperature;BMP_pressure;BME280_temperature;BME280_humidity;BME280_pressure;Samples;Min_cycle;Max_cycle;Signal;HPM_P1;HPM_P2
2022/06/21 00:02:19;;;;;;;0.82;0.20;;;17.30;99.90;;;;;;4999330;28;20399;-86
2022/06/21 00:04:45;;;;;;;1.77;0.40;;;17.30;99.90;;;;;;4992526;28;20050;-86
2022/06/21 00:07:18;;;;;;;1.17;0.35;;;17.40;99.90;;;;;;5027417;28;20046;-83
2022/06/21 00:09:44;;;;;;;3.13;0.60;;;17.40;99.90;;;;;;5032225;28;20026;-84
2022/06/21 00:12:13;;;;;;;1.40;0.30;;;17.50;99.90;;;;;;5030442;28;20036;-85
2022/06/21 00:14:40;;;;;;;0.55;0.32;;;17.40;99.90;;;;;;5020387;28;20065;-84
2022/06/21 00:17:13;;;;;;;0.95;0.30;;;17.50;99.90;;;;;;5038640;28;20014;-87
2022/06/21 00:19:43;;;;;;;1.30;0.30;;;17.50;99.90;;;;;;5011836;28;20367;-87
2022/06/21 00:22:14;;;;;;;0.80;0.30;;;17.60;99.90;;;;;;5015077;28;20021;-86
2022/06/21 00:24:40;;;;;;;0.65;0.20;;;17.40;99.90;;;;;;5021701;28;20105;-84
2022/06/21 00:27:17;;;;;;;0.52;0.30;;;17.40;99.90;;;;;;5020304;28;20030;-86
2022/06/21 00:29:44;;;;;;;1.20;0.30;;;17.30;99.90;;;;;;4997767;28;20034;-87
2022/06/21 00:32:20;;;;;;;0.45;0.20;;;17.40;99.90;;;;;;4997434;28;20156;-86
2022/06/21 00:34:47;;;;;;;0.65;0.20;;;17.40;99.90;;;;;;5014758;28;20025;-87
2022/06/21 00:37:16;;;;;;;0.70;0.30;;;17.30;99.90;;;;;;5015395;28;20022;-87
2022/06/21 00:39:41;;;;;;;0.73;0.30;;;17.40;99.90;;;;;;5019086;28;20029;-87
2022/06/21 00:42:28;;;;;;;0.80;0.30;;;17.30;99.90;;;;;;4991573;28;20390;-87
2022/06/21 00:45:34;;;;;;;0.55;0.30;;;17.30;99.90;;;;;;5014649;28;20033;-87
2022/06/21 00:48:15;;;;;;;2.40;0.52;;;17.20;99.90;;;;;;4999164;28;20044;-85
2022/06/21 00:50:44;;;;;;;1.47;0.33;;;17.10;99.90;;;;;;5009667;28;20026;-87
2022/06/21 00:53:33;;;;;;;0.80;0.30;;;17.10;99.90;;;;;;4998400;28;20273;-86
2022/06/21 00:56:04;;;;;;;0.63;0.30;;;17.10;99.90;;;;;;4995650;28;20041;-86
2022/06/21 00:58:33;;;;;;;2.10;0.30;;;17.10;99.90;;;;;;4991527;28;20065;-87
2022/06/21 01:04:25;;;;;;;0.65;0.28;;;17.10;99.90;;;;;;5027166;28;20049;-91
2022/06/21 01:07:16;;;;;;;1.40;0.30;;;17.10;99.90;;;;;;4955489;28;20057;-90
2022/06/21 01:14:05;;;;;;;0.90;0.47;;;17.00;99.90;;;;;;4972672;28;20038;-90
2022/06/21 01:16:35;;;;;;;0.90;0.20;;;16.90;99.90;;;;;;4938345;28;20489;-90
2022/06/21 01:19:48;;;;;;;0.40;0.30;;;16.80;99.90;;;;;;5014087;28;20029;-90
2022/06/21 01:26:41;;;;;;;0.40;0.20;;;16.80;99.90;;;;;;5019779;28;20151;-91
2022/06/21 01:29:43;;;;;;;0.60;0.20;;;16.90;99.90;;;;;;5027914;28;20044;-91
2022/06/21 01:32:50;;;;;;;;;;;;;;;;;;;;;
2022/06/21 01:36:07;;;;;;;0.73;0.25;;;16.90;99.90;;;;;;5030947;28;20033;-91
2022/06/21 01:39:50;;;;;;;1.17;0.35;;;16.80;99.90;;;;;;4998321;28;20049;-92
2022/06/21 01:43:19;;;;;;;;;;;;;;;;;;;;;
2022/06/21 01:46:26;;;;;;;1.10;0.20;;;16.70;99.90;;;;;;5033054;28;20100;-91
2022/06/21 01:56:01;;;;;;;;;;;;;;;;;;;;;
2022/06/21 01:59:24;;;;;;;;;;;;;;;;;;;;;
2022/06/21 02:02:27;;;;;;;0.35;0.20;;;16.20;99.90;;;;;;5029449;22;20049;-89
2022/06/21 02:05:42;;;;;;;;;;;;;;;;;;;;;
2022/06/21 02:08:51;;;;;;;0.40;0.10;;;16.10;99.90;;;;;;4914375;29;20048;-90
2022/06/21 02:11:48;;;;;;;0.43;0.20;;;16.10;99.90;;;;;;4916407;28;20107;-90
2022/06/21 02:14:29;;;;;;;1.30;0.30;;;16.00;99.90;;;;;;4994248;23;20125;-85
2022/06/21 02:17:06;;;;;;;0.65;0.20;;;16.00;99.90;;;;;;4988265;28;20049;-85
2022/06/21 02:19:43;;;;;;;0.63;0.30;;;16.10;99.90;;;;;;4987146;28;20037;-85
2022/06/21 02:22:19;;;;;;;0.80;0.20;;;16.10;99.90;;;;;;5007977;28;20434;-86
2022/06/21 02:24:45;;;;;;;1.30;0.30;;;16.10;99.90;;;;;;4992051;28;20026;-85
2022/06/21 02:27:14;;;;;;;0.88;0.20;;;16.20;99.90;;;;;;5008858;28;20030;-86
2022/06/21 02:29:42;;;;;;;0.20;0.20;;;16.10;99.90;;;;;;5006311;28;20030;-85
2022/06/21 02:32:23;;;;;;;1.00;0.20;;;16.10;99.90;;;;;;5009268;28;20021;-86
2022/06/21 02:34:51;;;;;;;0.43;0.20;;;16.10;99.90;;;;;;4990083;28;20113;-85
2022/06/21 02:37:17;;;;;;;0.52;0.30;;;16.10;99.90;;;;;;4997914;28;20029;-85
2022/06/21 02:39:44;;;;;;;0.85;0.20;;;16.10;99.90;;;;;;4993409;28;20141;-85
2022/06/21 02:42:24;;;;;;;0.20;0.10;;;16.00;99.90;;;;;;5009055;28;20124;-86
2022/06/21 02:44:59;;;;;;;0.80;0.30;;;16.00;99.90;;;;;;4992915;28;20189;-85
2022/06/21 02:47:31;;;;;;;0.30;0.20;;;16.00;99.90;;;;;;5004331;28;20088;-85
2022/06/21 02:50:23;;;;;;;0.73;0.30;;;16.00;99.90;;;;;;5010861;28;20018;-86
2022/06/21 02:52:51;;;;;;;0.50;0.30;;;16.10;99.90;;;;;;4996515;28;20033;-85
2022/06/21 02:55:44;;;;;;;1.10;0.30;;;16.00;99.90;;;;;;5006349;28;20026;-85
2022/06/21 02:58:22;;;;;;;2.25;0.30;;;16.00;99.90;;;;;;5000349;28;20501;-85
2022/06/21 03:00:48;;;;;;;1.58;0.22;;;16.00;99.90;;;;;;4993058;28;20030;-85
2022/06/21 03:03:18;;;;;;;0.95;0.30;;;16.10;99.90;;;;;;4994584;28;20026;-86
2022/06/21 03:05:48;;;;;;;1.73;0.45;;;16.10;99.90;;;;;;4994798;28;20085;-85
2022/06/21 03:08:14;;;;;;;1.33;0.50;;;16.10;99.90;;;;;;5008788;28;20117;-85
2022/06/21 03:10:45;;;;;;;0.60;0.20;;;16.20;99.90;;;;;;5010842;28;20101;-85
2022/06/21 03:13:18;;;;;;;0.90;0.30;;;16.20;99.90;;;;;;4992799;28;20030;-85
2022/06/21 03:15:50;;;;;;;1.05;0.30;;;16.10;99.90;;;;;;5008559;28;20066;-85
2022/06/21 03:18:22;;;;;;;0.85;0.30;;;16.00;99.90;;;;;;4990727;28;20031;-85
2022/06/21 03:20:48;;;;;;;0.85;0.30;;;15.90;99.90;;;;;;4991237;28;20486;-85
2022/06/21 03:23:15;;;;;;;0.50;0.30;;;15.80;99.90;;;;;;4993566;28;20069;-86
2022/06/21 03:25:48;;;;;;;1.00;0.40;;;15.90;99.90;;;;;;5011073;28;20037;-85
2022/06/21 03:28:25;;;;;;;0.88;0.40;;;15.90;99.90;;;;;;5018771;28;20021;-85
2022/06/21 03:31:14;;;;;;;0.98;0.30;;;16.00;99.90;;;;;;4995375;28;20029;-84
2022/06/21 03:33:44;;;;;;;0.80;0.30;;;15.90;99.90;;;;;;4989593;28;20030;-85
2022/06/21 03:36:14;;;;;;;1.55;0.40;;;16.00;99.90;;;;;;5010159;28;20030;-85
2022/06/21 03:38:45;;;;;;;2.17;0.38;;;16.00;99.90;;;;;;4996486;28;20048;-85
2022/06/21 03:44:09;;;;;;;3.00;0.50;;;16.00;99.90;;;;;;5014203;28;20088;-85
2022/06/21 03:47:06;;;;;;;1.60;0.40;;;15.90;99.90;;;;;;4996224;28;20133;-85
2022/06/21 03:49:49;;;;;;;0.47;0.30;;;15.90;99.90;;;;;;4989742;28;20085;-85
2022/06/21 03:52:42;;;;;;;0.90;0.30;;;16.00;99.90;;;;;;5011273;28;20090;-85
2022/06/21 03:55:27;;;;;;;0.80;0.28;;;15.90;99.90;;;;;;4991250;28;20035;-85
2022/06/21 03:58:14;;;;;;;0.57;0.40;;;16.00;99.90;;;;;;4986683;28;20034;-85
2022/06/21 04:00:57;;;;;;;0.77;0.22;;;16.00;99.90;;;;;;4980932;28;20125;-85
2022/06/21 04:03:31;;;;;;;0.70;0.40;;;16.00;99.90;;;;;;4995007;28;20430;-85
2022/06/21 04:06:24;;;;;;;0.35;0.20;;;16.00;99.90;;;;;;4992594;28;20014;-85
2022/06/21 04:09:08;;;;;;;0.90;0.30;;;16.00;99.90;;;;;;4995858;28;20460;-85
2022/06/21 04:11:46;;;;;;;2.10;0.30;;;16.00;99.90;;;;;;4995831;28;20034;-85
2022/06/21 04:14:21;;;;;;;1.00;0.20;;;16.00;99.90;;;;;;5012067;28;20037;-85
2022/06/21 04:16:56;;;;;;;1.05;0.30;;;16.00;99.90;;;;;;4993549;28;20060;-85
2022/06/21 04:19:37;;;;;;;0.77;0.20;;;16.10;99.90;;;;;;5014806;28;20124;-86
2022/06/21 04:22:38;;;;;;;1.25;0.40;;;16.10;99.90;;;;;;4986450;28;20135;-86
2022/06/21 04:25:38;;;;;;;1.15;0.20;;;16.20;99.90;;;;;;4976673;28;20101;-85
2022/06/21 04:28:26;;;;;;;1.38;0.30;;;16.20;99.90;;;;;;4977865;28;20030;-85
2022/06/21 04:30:52;;;;;;;0.50;0.30;;;16.20;99.90;;;;;;5009651;28;20179;-85
2022/06/21 04:33:32;;;;;;;0.68;0.30;;;16.20;99.90;;;;;;5011093;28;20108;-85
2022/06/21 04:36:13;;;;;;;0.55;0.30;;;16.20;99.90;;;;;;5008608;28;20029;-85
2022/06/21 04:38:50;;;;;;;0.75;0.20;;;16.20;99.90;;;;;;4993161;28;20069;-85
2022/06/21 04:41:31;;;;;;;0.38;0.20;;;16.20;99.90;;;;;;4991583;28;20048;-85
2022/06/21 04:44:06;;;;;;;0.70;0.30;;;16.30;99.90;;;;;;4995201;28;20022;-85
2022/06/21 04:47:08;;;;;;;0.98;0.40;;;16.40;99.90;;;;;;4992293;28;20033;-85
2022/06/21 04:49:41;;;;;;;1.30;0.30;;;16.30;99.90;;;;;;4953691;28;20080;-85
2022/06/21 04:52:39;;;;;;;0.30;0.20;;;16.40;99.90;;;;;;4992644;28;20110;-86
2022/06/21 04:55:07;;;;;;;0.70;0.30;;;16.50;99.90;;;;;;5009529;28;20044;-86
2022/06/21 04:57:34;;;;;;;0.68;0.30;;;16.50;99.90;;;;;;5001050;28;20491;-86
2022/06/21 05:00:06;;;;;;;1.40;0.47;;;16.60;99.90;;;;;;4994682;28;20466;-87
2022/06/21 05:02:38;;;;;;;0.80;0.30;;;16.70;99.90;;;;;;4995247;28;20018;-87
2022/06/21 05:05:06;;;;;;;;;;;16.80;99.90;;;;;;4989077;28;20030;-86
2022/06/21 05:07:39;;;;;;;0.88;0.32;;;16.70;99.90;;;;;;5008633;28;19997;-87
2022/06/21 05:10:05;;;;;;;0.52;0.30;;;16.80;99.90;;;;;;4999748;28;20502;-85
2022/06/21 05:12:39;;;;;;;1.38;0.60;;;16.80;99.90;;;;;;4994849;28;20037;-85
2022/06/21 05:15:12;;;;;;;0.88;0.30;;;16.90;99.90;;;;;;4989192;28;20038;-86
2022/06/21 05:17:39;;;;;;;1.20;0.30;;;16.90;99.90;;;;;;4988998;28;20038;-85
2022/06/21 05:20:14;;;;;;;1.38;0.28;;;16.90;99.90;;;;;;4989424;28;20037;-84
2022/06/21 05:22:43;;;;;;;0.98;0.25;;;16.90;99.90;;;;;;5004530;28;20026;-85
2022/06/21 05:25:26;;;;;;;2.15;0.98;;;17.00;99.90;;;;;;4993743;28;20025;-86
2022/06/21 05:28:08;;;;;;;1.52;0.30;;;17.00;99.90;;;;;;4996642;28;20018;-86
2022/06/21 05:30:53;;;;;;;0.90;0.40;;;17.00;99.90;;;;;;4987110;28;20034;-87
2022/06/21 05:33:33;;;;;;;1.08;0.38;;;16.90;99.90;;;;;;5006425;28;20478;-86
2022/06/21 05:36:02;;;;;;;1.88;0.47;;;16.90;99.90;;;;;;4994456;28;20038;-86
2022/06/21 05:38:31;;;;;;;1.23;0.30;;;16.90;99.90;;;;;;4994301;28;20084;-87
2022/06/21 05:41:29;;;;;;;2.50;0.30;;;16.90;99.90;;;;;;4997405;28;20033;-86
2022/06/21 05:44:02;;;;;;;1.38;0.77;;;17.10;99.90;;;;;;4997926;28;20033;-86
2022/06/21 05:46:31;;;;;;;3.55;0.70;;;17.00;99.20;;;;;;4996998;28;20037;-86
2022/06/21 05:48:58;;;;;;;1.55;0.40;;;17.10;99.20;;;;;;4997377;28;20033;-86
2022/06/21 05:51:27;;;;;;;1.75;0.35;;;17.10;99.50;;;;;;5014169;28;20033;-86
2022/06/21 05:54:08;;;;;;;1.23;0.45;;;17.20;99.00;;;;;;5009613;28;20032;-86
2022/06/21 05:56:36;;;;;;;1.75;0.40;;;17.40;99.40;;;;;;5014228;28;20080;-86
2022/06/21 05:59:06;;;;;;;3.35;0.30;;;17.50;99.00;;;;;;4999284;28;20034;-86
2022/06/21 06:01:39;;;;;;;1.30;0.40;;;17.40;99.50;;;;;;5014688;28;20075;-87
2022/06/21 06:04:23;;;;;;;1.58;0.32;;;17.40;99.10;;;;;;5005162;28;20493;-85
2022/06/21 06:06:50;;;;;;;1.48;0.38;;;17.30;99.00;;;;;;5003286;28;20442;-86
2022/06/21 06:09:27;;;;;;;0.77;0.32;;;17.30;99.70;;;;;;5000097;28;20068;-86
2022/06/21 06:12:01;;;;;;;0.63;0.30;;;17.20;99.20;;;;;;5000206;28;20520;-86
2022/06/21 06:14:47;;;;;;;1.40;0.85;;;17.20;99.10;;;;;;5020708;28;20482;-87
2022/06/21 06:17:37;;;;;;;1.17;0.28;;;17.30;99.10;;;;;;5003544;28;20511;-86
2022/06/21 06:20:34;;;;;;;2.00;0.38;;;17.30;99.00;;;;;;5014961;28;20610;-86
2022/06/21 06:23:24;;;;;;;1.55;0.47;;;17.30;99.60;;;;;;5018706;28;20049;-86
2022/06/21 06:26:12;;;;;;;1.48;0.40;;;17.30;99.00;;;;;;5023005;28;20108;-86
2022/06/21 06:28:46;;;;;;;1.10;0.30;;;17.40;98.80;;;;;;5011332;28;20026;-86
2022/06/21 06:31:39;;;;;;;1.67;0.40;;;17.50;98.80;;;;;;5014987;28;20018;-86
2022/06/21 06:34:11;;;;;;;0.88;0.30;;;17.60;98.50;;;;;;4996143;28;20033;-86
2022/06/21 06:36:55;;;;;;;0.68;0.40;;;17.80;98.50;;;;;;4995526;28;20101;-86
2022/06/21 06:39:27;;;;;;;0.57;0.20;;;17.80;98.50;;;;;;5003498;28;20600;-86
2022/06/21 06:42:18;;;;;;;1.65;0.63;;;18.00;98.30;;;;;;5013169;28;20040;-86
2022/06/21 06:44:51;;;;;;;2.90;0.98;;;18.20;99.30;;;;;;5006582;28;20041;-86
2022/06/21 06:47:42;;;;;;;0.30;0.20;;;18.30;98.60;;;;;;4997710;28;20053;-89
2022/06/21 06:50:25;;;;;;;1.60;0.50;;;18.40;98.20;;;;;;5017528;28;20022;-91
2022/06/21 06:56:04;;;;;;;1.45;0.55;;;18.70;98.40;;;;;;4994766;28;20032;-90
2022/06/21 06:59:36;;;;;;;0.70;0.30;;;19.00;98.40;;;;;;4996103;28;20034;-89
2022/06/21 07:02:02;;;;;;;0.65;0.30;;;19.10;97.50;;;;;;4990343;28;20035;-90
2022/06/21 07:04:48;;;;;;;0.85;0.32;;;19.30;96.90;;;;;;4992865;28;20026;-90
2022/06/21 07:07:54;;;;;;;2.22;0.52;;;19.50;96.10;;;;;;4991768;28;20654;-90
2022/06/21 07:10:46;;;;;;;1.10;0.40;;;19.40;96.00;;;;;;4993305;28;20034;-89
2022/06/21 07:20:29;;;;;;;0.68;0.30;;;19.60;95.30;;;;;;4956198;28;20566;-89
2022/06/21 07:23:27;;;;;;;1.08;0.40;;;19.90;95.60;;;;;;4977538;28;20046;-90
2022/06/21 07:26:39;;;;;;;0.80;0.40;;;20.00;94.70;;;;;;5007948;28;20045;-89
2022/06/21 07:32:44;;;;;;;2.55;0.60;;;20.20;95.00;;;;;;5010390;28;20501;-91
2022/06/21 07:35:34;;;;;;;1.08;0.50;;;20.30;94.80;;;;;;4990561;28;20041;-89
2022/06/21 07:38:06;;;;;;;1.42;0.40;;;20.40;94.80;;;;;;4995811;28;20030;-89
2022/06/21 07:41:05;;;;;;;0.90;0.40;;;20.50;95.40;;;;;;5007867;28;20080;-90
2022/06/21 07:44:25;;;;;;;1.58;0.35;;;20.70;95.00;;;;;;4989249;28;20173;-89
2022/06/21 07:47:00;;;;;;;0.82;0.40;;;20.60;94.50;;;;;;4989445;28;20038;-89
2022/06/21 07:49:42;;;;;;;4.38;0.40;;;20.60;94.10;;;;;;4992004;28;20491;-89
2022/06/21 07:52:31;;;;;;;0.68;0.30;;;20.60;94.70;;;;;;4992285;28;20025;-89
2022/06/21 07:55:53;;;;;;;2.70;0.68;;;20.60;94.90;;;;;;4981665;28;20578;-89
2022/06/21 08:08:45;;;;;;;1.60;0.38;;;20.70;95.10;;;;;;5007172;28;20513;-91
2022/06/21 08:12:38;;;;;;;;;;;;;;;;;;;;;
2022/06/21 08:14:54;;;;;;;2.70;0.60;;;21.50;94.80;;;;;;4925878;29;20440;-90
2022/06/21 08:25:10;;;;;;;0.85;0.40;;;20.70;94.70;;;;;;4902044;29;20060;-89
2022/06/21 08:31:34;;;;;;;3.83;0.60;;;20.70;95.80;;;;;;4968743;28;20037;-89
2022/06/21 08:34:24;;;;;;;1.77;0.35;;;20.80;95.00;;;;;;4983821;28;20516;-89
2022/06/21 08:37:41;;;;;;;1.08;0.45;;;20.90;94.60;;;;;;4985339;28;20450;-90
2022/06/21 08:43:39;;;;;;;0.88;0.40;;;20.80;94.60;;;;;;5009909;28;20041;-88
2022/06/21 08:46:27;;;;;;;2.03;0.40;;;20.70;94.90;;;;;;4993134;28;20041;-90
2022/06/21 08:49:33;;;;;;;2.10;0.43;;;20.70;95.00;;;;;;5009883;28;20037;-90
2022/06/21 08:52:39;;;;;;;2.97;0.50;;;20.60;95.20;;;;;;4991742;28;20117;-89
2022/06/21 08:55:33;;;;;;;0.95;0.65;;;20.50;94.90;;;;;;4984557;28;20109;-89
2022/06/21 09:02:05;;;;;;;0.77;0.40;;;20.40;95.10;;;;;;4954702;28;20037;-88
2022/06/21 09:08:33;;;;;;;2.17;0.70;;;20.30;97.90;;;;;;4857376;29;20124;-88
2022/06/21 09:11:23;;;;;;;;;;;;;;;;;;;;;
2022/06/21 09:14:43;;;;;;;2.90;0.40;;;20.40;97.60;;;;;;4858637;29;20033;-89
2022/06/21 09:17:59;;;;;;;2.95;0.60;;;20.60;97.40;;;;;;4859368;29;20518;-89
2022/06/21 09:27:34;;;;;;;1.40;0.50;;;20.90;95.70;;;;;;5023071;23;20042;-89
2022/06/21 09:33:54;;;;;;;;;;;21.50;95.20;;;;;;5000911;28;20505;-89
2022/06/21 09:37:13;;;;;;;1.08;0.38;;;21.60;95.00;;;;;;5018266;23;19944;-90
2022/06/21 09:43:55;;;;;;;2.08;0.50;;;22.70;94.00;;;;;;5021998;28;20126;-90
2022/06/21 09:46:46;;;;;;;2.00;0.52;;;23.00;93.30;;;;;;4994146;23;20054;-89
2022/06/21 09:49:43;;;;;;;0.95;0.40;;;23.10;93.10;;;;;;4987331;28;20026;-90
2022/06/21 09:56:04;;;;;;;3.45;0.70;;;23.70;92.70;;;;;;5010467;28;20053;-91
2022/06/21 09:58:55;;;;;;;3.88;0.50;;;23.90;91.60;;;;;;4990586;28;20026;-90
2022/06/21 10:01:49;;;;;;;0.93;0.30;;;23.80;92.20;;;;;;4982350;28;20861;-90
2022/06/21 10:04:50;;;;;;;4.15;0.50;;;23.90;92.40;;;;;;4986073;28;20440;-89
2022/06/21 10:07:35;;;;;;;1.67;0.45;;;24.10;91.70;;;;;;4992124;28;20021;-90
2022/06/21 10:10:37;;;;;;;1.40;0.50;;;24.00;92.20;;;;;;4988526;28;20097;-90
2022/06/21 10:13:31;;;;;;;0.95;0.40;;;24.20;92.30;;;;;;4988854;28;20061;-90
2022/06/21 10:16:21;;;;;;;1.13;0.50;;;24.40;91.80;;;;;;4983402;28;20027;-89
2022/06/21 10:19:04;;;;;;;2.65;0.73;;;24.50;92.00;;;;;;4984755;28;20391;-90
2022/06/21 10:22:11;;;;;;;1.45;0.50;;;24.50;91.70;;;;;;4992337;28;20109;-90
2022/06/21 10:25:30;;;;;;;1.42;0.57;;;24.90;91.50;;;;;;5001148;28;20022;-89
2022/06/21 10:28:35;;;;;;;1.60;0.40;;;24.90;91.40;;;;;;4949862;28;20034;-90
2022/06/21 10:31:18;;;;;;;2.97;0.60;;;24.70;91.30;;;;;;4952900;28;20062;-90
2022/06/21 10:34:26;;;;;;;3.20;0.57;;;24.90;91.60;;;;;;4987614;28;20044;-90
2022/06/21 10:37:50;;;;;;;1.88;0.52;;;24.80;91.50;;;;;;4990138;28;20070;-90
2022/06/21 10:40:48;;;;;;;1.63;0.60;;;25.10;92.30;;;;;;4977948;28;20030;-90
2022/06/21 10:43:45;;;;;;;1.50;0.60;;;25.10;91.40;;;;;;4983202;28;20078;-91
2022/06/21 10:46:25;;;;;;;2.00;0.60;;;25.70;91.30;;;;;;4993393;28;20368;-90
2022/06/21 10:48:56;;;;;;;1.38;0.85;;;25.70;90.50;;;;;;5000482;28;20019;-89
2022/06/21 10:51:33;;;;;;;1.20;0.50;;;25.90;91.60;;;;;;4988007;28;20033;-89
2022/06/21 10:54:22;;;;;;;4.60;0.55;;;26.10;91.00;;;;;;4998500;28;20120;-89
2022/06/21 10:57:10;;;;;;;1.42;0.40;;;26.20;90.20;;;;;;5010514;28;20037;-90
2022/06/21 11:02:41;;;;;;;1.73;0.70;;;26.20;91.20;;;;;;5006266;28;20114;-90
2022/06/21 11:05:34;;;;;;;1.85;0.47;;;26.40;91.20;;;;;;5007946;28;20029;-90
2022/06/21 11:08:38;;;;;;;2.05;0.60;;;26.50;90.90;;;;;;4991123;28;20058;-89
2022/06/21 11:11:33;;;;;;;1.42;0.70;;;26.40;91.30;;;;;;5008564;28;20018;-88
2022/06/21 11:14:33;;;;;;;2.42;0.80;;;26.50;90.50;;;;;;4992621;28;20029;-89
2022/06/21 11:17:05;;;;;;;1.37;0.50;;;26.30;91.00;;;;;;5008832;28;20021;-87
2022/06/21 11:20:03;;;;;;;2.25;0.88;;;26.20;91.10;;;;;;5004323;28;20029;-89
2022/06/21 11:22:57;;;;;;;1.38;0.60;;;26.00;92.00;;;;;;4989005;28;20022;-89
2022/06/21 11:25:41;;;;;;;1.20;0.55;;;26.60;90.80;;;;;;4989415;28;20041;-89
2022/06/21 11:28:27;;;;;;;2.05;0.50;;;26.70;90.70;;;;;;5005448;28;20034;-89
2022/06/21 11:30:52;;;;;;;4.00;0.68;;;26.80;91.00;;;;;;4987775;28;20041;-88
2022/06/21 11:33:35;;;;;;;2.78;0.40;;;26.70;90.90;;;;;;4992917;28;20442;-86
2022/06/21 11:36:28;;;;;;;2.13;0.63;;;26.40;92.10;;;;;;5007748;28;20041;-89
2022/06/21 11:39:21;;;;;;;1.45;0.80;;;26.20;91.40;;;;;;5009819;28;20029;-89
2022/06/21 11:42:25;;;;;;;1.77;0.68;;;26.40;91.50;;;;;;5006884;28;20112;-88
2022/06/21 11:45:23;;;;;;;1.83;0.65;;;26.50;91.60;;;;;;4964645;28;20030;-90
2022/06/21 11:48:21;;;;;;;2.70;0.88;;;26.70;91.90;;;;;;5012209;28;20029;-89
2022/06/21 11:50:56;;;;;;;1.88;0.75;;;27.20;91.40;;;;;;5012592;28;20041;-88
2022/06/21 11:53:37;;;;;;;3.95;1.02;;;27.30;90.90;;;;;;4991751;28;20029;-89
2022/06/21 11:56:21;;;;;;;1.02;0.60;;;27.00;90.70;;;;;;5012191;28;20026;-88
2022/06/21 11:58:49;;;;;;;2.17;0.73;;;27.00;91.40;;;;;;4983964;28;21849;-89
2022/06/21 12:01:18;;;;;;;1.80;0.80;;;27.00;91.70;;;;;;5008705;28;20025;-90
2022/06/21 12:03:56;;;;;;;1.75;0.70;;;27.00;91.60;;;;;;4997779;28;20033;-89
2022/06/21 12:06:42;;;;;;;1.75;0.63;;;27.10;91.40;;;;;;5014268;28;20030;-91
2022/06/21 12:09:35;;;;;;;1.23;0.60;;;27.00;91.60;;;;;;4992506;28;20789;-88
2022/06/21 12:12:07;;;;;;;1.92;0.80;;;27.20;92.10;;;;;;5012588;28;20117;-89
2022/06/21 12:15:03;;;;;;;2.13;0.80;;;27.30;91.70;;;;;;5009699;28;20478;-89
2022/06/21 12:17:47;;;;;;;2.55;0.70;;;27.40;91.50;;;;;;5010329;28;20441;-89
2022/06/21 12:20:21;;;;;;;0.95;0.57;;;27.50;91.00;;;;;;5007962;28;20021;-88
2022/06/21 12:22:58;;;;;;;2.83;0.75;;;27.30;91.30;;;;;;5007757;28;20022;-89
2022/06/21 12:25:26;;;;;;;2.58;0.60;;;27.30;91.50;;;;;;4991107;28;20030;-86
2022/06/21 12:27:53;;;;;;;1.83;0.93;;;27.70;92.60;;;;;;5003099;28;20021;-86
2022/06/21 12:30:19;;;;;;;1.77;0.65;;;27.60;90.60;;;;;;5006906;28;20505;-86
2022/06/21 12:32:46;;;;;;;2.28;0.85;;;27.80;90.60;;;;;;4994036;28;20030;-86
2022/06/21 12:35:18;;;;;;;2.28;0.90;;;27.70;90.90;;;;;;4991742;28;20022;-86
2022/06/21 12:37:55;;;;;;;2.35;0.60;;;27.50;91.10;;;;;;4984727;28;20509;-89
2022/06/21 12:40:45;;;;;;;3.72;0.82;;;27.50;91.20;;;;;;5011068;28;20021;-89
2022/06/21 12:43:28;;;;;;;1.88;0.60;;;27.10;91.60;;;;;;5010499;28;20030;-89
2022/06/21 12:46:10;;;;;;;2.95;1.10;;;26.90;92.00;;;;;;4990722;28;20495;-90
2022/06/21 12:48:38;;;;;;;1.10;0.60;;;26.60;92.00;;;;;;4998825;28;20494;-88
2022/06/21 12:51:38;;;;;;;3.20;0.85;;;26.40;92.80;;;;;;5023448;28;20085;-89
2022/06/21 12:54:41;;;;;;;1.77;0.60;;;26.40;92.80;;;;;;5028032;28;20022;-88
2022/06/21 12:57:41;;;;;;;1.65;0.88;;;26.10;92.60;;;;;;4910264;29;20012;-86
2022/06/21 13:00:18;;;;;;;3.28;1.05;;;26.10;92.60;;;;;;4992593;28;20086;-89
2022/06/21 13:02:53;;;;;;;1.73;0.68;;;26.30;92.70;;;;;;4998528;28;20046;-88
2022/06/21 13:05:45;;;;;;;2.20;0.90;;;26.60;92.20;;;;;;4994700;28;20038;-89
2022/06/21 13:08:52;;;;;;;1.05;0.77;;;26.80;91.90;;;;;;4995693;28;20061;-89
2022/06/21 13:11:38;;;;;;;3.35;1.15;;;27.10;92.00;;;;;;4996225;28;20030;-89
2022/06/21 13:14:26;;;;;;;2.38;1.05;;;27.70;91.70;;;;;;4995186;28;20076;-89
2022/06/21 13:16:54;;;;;;;2.22;0.90;;;28.30;91.90;;;;;;5007307;28;20034;-89
2022/06/21 13:20:04;;;;;;;1.90;0.75;;;28.70;91.00;;;;;;4993386;28;20053;-88
2022/06/21 13:22:45;;;;;;;1.40;0.75;;;28.80;91.00;;;;;;4992277;28;20098;-89
2022/06/21 13:25:30;;;;;;;1.88;0.90;;;29.30;90.10;;;;;;4992547;28;20028;-88
2022/06/21 13:28:36;;;;;;;2.40;0.88;;;29.70;90.20;;;;;;4993697;28;20032;-89
2022/06/21 13:31:31;;;;;;;2.25;1.00;;;30.10;88.80;;;;;;4993194;28;20026;-88
2022/06/21 13:34:05;;;;;;;1.48;0.77;;;30.30;89.10;;;;;;5009038;28;20033;-88
2022/06/21 13:36:54;;;;;;;1.90;0.85;;;30.70;88.10;;;;;;5008559;28;20475;-89
2022/06/21 13:39:31;;;;;;;4.20;0.90;;;30.80;86.80;;;;;;4993812;28;20026;-89
2022/06/21 13:42:37;;;;;;;2.17;1.20;;;30.70;88.20;;;;;;4993954;28;21613;-86
2022/06/21 13:45:20;;;;;;;1.48;0.80;;;30.30;86.70;;;;;;5005887;28;20026;-86
2022/06/21 13:48:07;;;;;;;2.75;1.10;;;30.40;87.20;;;;;;5011855;28;20514;-86
2022/06/21 13:50:36;;;;;;;3.58;1.20;;;30.20;85.50;;;;;;5010623;28;20026;-86
2022/06/21 13:53:13;;;;;;;1.90;0.80;;;30.10;86.10;;;;;;5010142;28;20021;-87
2022/06/21 13:56:01;;;;;;;2.40;0.90;;;30.70;87.10;;;;;;4992647;28;20037;-86
2022/06/21 13:58:40;;;;;;;5.00;0.90;;;31.00;85.90;;;;;;5008662;28;20041;-87
2022/06/21 14:01:33;;;;;;;1.63;0.80;;;31.30;84.70;;;;;;4991314;28;20030;-86
2022/06/21 14:04:05;;;;;;;2.00;1.10;;;31.70;82.80;;;;;;5010737;28;20030;-86
2022/06/21 14:06:49;;;;;;;2.08;0.80;;;31.50;83.40;;;;;;5008712;28;20391;-87
2022/06/21 14:09:53;;;;;;;2.55;1.20;;;31.80;82.60;;;;;;5009871;28;20017;-86
2022/06/21 14:12:27;;;;;;;4.25;1.23;;;31.30;81.80;;;;;;4947077;28;20038;-86
2022/06/21 14:15:04;;;;;;;2.25;1.35;;;31.50;82.30;;;;;;5009569;28;20766;-87
2022/06/21 14:17:37;;;;;;;1.98;0.90;;;31.60;82.10;;;;;;4985825;28;20474;-87
2022/06/21 14:20:09;;;;;;;2.67;0.90;;;31.70;82.10;;;;;;4988446;28;20068;-87
2022/06/21 14:22:42;;;;;;;2.70;1.10;;;31.40;82.90;;;;;;5010100;28;20437;-86
2022/06/21 14:25:19;;;;;;;1.85;1.00;;;31.70;82.90;;;;;;4992615;28;20029;-87
2022/06/21 14:28:09;;;;;;;2.50;0.80;;;32.10;82.20;;;;;;5006953;28;20022;-86
2022/06/21 14:31:00;;;;;;;2.42;1.10;;;32.00;80.10;;;;;;4988703;28;20096;-86
2022/06/21 14:33:48;;;;;;;1.60;0.88;;;31.80;80.70;;;;;;5004261;28;20105;-86
2022/06/21 14:36:46;;;;;;;2.83;1.00;;;31.80;80.20;;;;;;5008166;28;20018;-86
2022/06/21 14:39:28;;;;;;;2.28;0.90;;;31.90;80.30;;;;;;5008372;28;20017;-87
2022/06/21 14:42:14;;;;;;;2.13;0.98;;;32.00;81.10;;;;;;5009144;28;20030;-87
2022/06/21 14:45:17;;;;;;;2.88;1.20;;;32.10;80.20;;;;;;4991085;28;20022;-87
2022/06/21 14:47:52;;;;;;;3.20;1.00;;;32.20;80.20;;;;;;5007747;28;20028;-87
2022/06/21 14:50:36;;;;;;;2.22;1.00;;;32.70;81.00;;;;;;5004417;28;20193;-87
2022/06/21 14:53:28;;;;;;;2.28;1.08;;;32.50;79.60;;;;;;5006506;28;20436;-87
2022/06/21 14:56:08;;;;;;;1.92;0.85;;;32.50;79.20;;;;;;4991520;28;20148;-87
2022/06/21 14:58:44;;;;;;;;;;;32.50;80.40;;;;;;4988851;28;20026;-87
2022/06/21 15:01:45;;;;;;;1.60;0.82;;;32.40;80.00;;;;;;5000680;28;19921;-87
2022/06/21 15:04:17;;;;;;;1.80;1.00;;;32.50;79.40;;;;;;5009047;28;20033;-88
2022/06/21 15:06:43;;;;;;;2.50;1.10;;;32.60;79.50;;;;;;4990837;28;20092;-87
2022/06/21 15:09:26;;;;;;;2.35;1.13;;;32.90;79.40;;;;;;5010647;28;20548;-87
2022/06/21 15:12:03;;;;;;;2.42;0.90;;;33.10;77.40;;;;;;4986563;28;20033;-87
2022/06/21 15:14:52;;;;;;;2.45;1.10;;;33.30;76.40;;;;;;4986424;28;20030;-87
2022/06/21 15:17:49;;;;;;;3.97;1.90;;;33.10;77.20;;;;;;4987008;28;20721;-87
2022/06/21 15:20:25;;;;;;;2.67;1.20;;;33.10;77.50;;;;;;4981781;28;20121;-87
2022/06/21 15:22:57;;;;;;;3.13;1.05;;;33.00;76.60;;;;;;5003350;28;20136;-86
2022/06/21 15:25:26;;;;;;;4.50;1.20;;;33.30;77.60;;;;;;5005217;28;20040;-87
2022/06/21 15:28:15;;;;;;;2.17;1.20;;;33.50;75.70;;;;;;4990357;28;20384;-87
2022/06/21 15:31:07;;;;;;;4.22;1.52;;;33.40;76.00;;;;;;5003239;28;20041;-87
2022/06/21 15:33:44;;;;;;;2.08;1.02;;;33.20;76.80;;;;;;4972877;28;20046;-87
2022/06/21 15:36:28;;;;;;;2.30;1.00;;;33.30;76.80;;;;;;5008019;28;20115;-86
2022/06/21 15:39:04;;;;;;;1.70;0.80;;;33.20;76.60;;;;;;5009754;28;20029;-86
2022/06/21 15:41:53;;;;;;;2.35;1.05;;;33.10;76.50;;;;;;4991247;28;20034;-87
2022/06/21 15:44:57;;;;;;;1.45;0.98;;;33.30;75.60;;;;;;4991145;28;20030;-87
2022/06/21 15:50:38;;;;;;;3.17;1.65;;;33.30;76.10;;;;;;5005466;28;20037;-87
2022/06/21 15:53:13;;;;;;;2.55;0.95;;;33.00;75.70;;;;;;4990980;28;20028;-87
2022/06/21 15:56:11;;;;;;;2.45;1.15;;;32.70;77.20;;;;;;4991493;28;20048;-87